createdAt,value
2023-01-29T00:01:44.667Z,149.38045
2023-01-29T00:06:46.335Z,133.5386
2023-01-29T00:11:47.974Z,120.20885
2023-01-29T00:16:49.685Z,105.47365
2023-01-29T00:21:51.299Z,85.66315
2023-01-29T00:26:53.193Z,66.46505
2023-01-29T00:31:54.996Z,51.7299
2023-01-29T00:36:56.757Z,36.01735
2023-01-29T00:41:58.394Z,20.48925
2023-01-29T00:47:00.054Z,13.51815
2023-01-29T00:52:01.709Z,6.3626
2023-01-29T00:57:03.430Z,2.6926
2023-01-29T01:02:05.135Z,1.3463
2023-01-29T01:07:06.834Z,1.16185
2023-01-29T01:12:08.469Z,0
2023-01-29T01:17:10.063Z,0
2023-01-29T01:22:11.751Z,0
2023-01-29T01:27:13.416Z,0
2023-01-29T01:32:15.059Z,0
2023-01-29T01:37:16.671Z,0
2023-01-29T01:42:18.411Z,0
2023-01-29T01:47:20.036Z,0
2023-01-29T01:52:21.742Z,0
2023-01-29T01:57:23.455Z,0
2023-01-29T02:02:25.217Z,0
2023-01-29T02:07:26.918Z,0
2023-01-29T02:12:28.713Z,0
2023-01-29T02:17:30.426Z,0
2023-01-29T02:22:32.116Z,0
2023-01-29T02:27:33.831Z,0
2023-01-29T02:32:35.517Z,0
2023-01-29T02:37:37.312Z,0
2023-01-29T02:42:38.975Z,0
2023-01-29T02:47:40.586Z,0
2023-01-29T02:52:42.229Z,0
2023-01-29T02:57:43.834Z,0
2023-01-29T03:02:45.476Z,0
2023-01-29T03:07:47.053Z,0
2023-01-29T03:12:48.708Z,0
2023-01-29T03:17:50.345Z,0
2023-01-29T03:22:51.975Z,0
2023-01-29T03:27:53.597Z,0
2023-01-29T03:32:55.295Z,0
2023-01-29T03:37:56.904Z,0
2023-01-29T03:42:58.553Z,0
2023-01-29T03:48:00.202Z,0
2023-01-29T03:53:01.955Z,0
2023-01-29T03:58:03.607Z,0
2023-01-29T04:03:05.238Z,0
2023-01-29T04:08:06.900Z,0
2023-01-29T04:13:08.727Z,0
2023-01-29T04:18:10.547Z,0
2023-01-29T04:23:12.201Z,0
2023-01-29T04:28:13.882Z,0
2023-01-29T04:33:15.477Z,0
2023-01-29T04:38:17.096Z,0
2023-01-29T04:43:18.876Z,0
2023-01-29T04:48:20.567Z,0
2023-01-29T04:53:22.222Z,0
2023-01-29T04:58:23.836Z,0
2023-01-29T05:03:25.453Z,0
2023-01-29T05:08:27.061Z,0
2023-01-29T05:13:29.161Z,0
2023-01-29T05:18:30.917Z,0
2023-01-29T05:23:32.526Z,0
2023-01-29T05:28:34.234Z,0
2023-01-29T05:33:35.863Z,0
2023-01-29T05:38:37.454Z,0
2023-01-29T05:43:39.064Z,0
2023-01-29T05:48:40.988Z,0
2023-01-29T05:53:42.616Z,0
2023-01-29T05:58:44.313Z,0
2023-01-29T06:03:46.024Z,0
2023-01-29T06:08:47.828Z,0
2023-01-29T06:13:49.461Z,0
2023-01-29T06:18:51.082Z,0
2023-01-29T06:23:52.740Z,0
2023-01-29T06:28:54.387Z,0
2023-01-29T06:33:56.046Z,0
2023-01-29T06:38:57.733Z,0
2023-01-29T06:43:59.891Z,0
2023-01-29T06:49:01.574Z,0
2023-01-29T06:54:03.326Z,0
2023-01-29T06:59:04.891Z,0
2023-01-29T07:04:06.519Z,0
2023-01-29T07:09:08.653Z,0
2023-01-29T07:14:10.287Z,0
2023-01-29T07:19:11.950Z,0
2023-01-29T07:24:13.637Z,0
2023-01-29T07:29:15.258Z,0
2023-01-29T07:34:16.875Z,0
2023-01-29T07:39:18.596Z,0
2023-01-29T07:44:20.228Z,0
2023-01-29T07:49:21.875Z,0
2023-01-29T07:54:23.545Z,0
2023-01-29T07:59:25.205Z,0
2023-01-29T08:04:26.822Z,0
2023-01-29T08:09:28.444Z,0
2023-01-29T08:14:30.127Z,0
2023-01-29T08:19:31.718Z,0
2023-01-29T08:24:47.517Z,0
2023-01-29T08:30:01.800Z,0
2023-01-29T08:35:03.525Z,0
2023-01-29T08:40:05.125Z,0
2023-01-29T08:45:06.764Z,0
2023-01-29T08:50:08.488Z,0
2023-01-29T08:55:10.204Z,0
2023-01-29T09:00:11.917Z,0
2023-01-29T09:05:13.747Z,0
2023-01-29T09:10:15.460Z,0
2023-01-29T09:15:17.465Z,0
2023-01-29T09:20:19.429Z,0
2023-01-29T09:25:21.075Z,0
2023-01-29T09:30:22.751Z,0
2023-01-29T09:35:24.442Z,0
2023-01-29T09:40:26.105Z,0
2023-01-29T09:45:27.789Z,0
2023-01-29T09:50:29.388Z,0
2023-01-29T09:55:31.026Z,0
2023-01-29T10:00:32.666Z,0
2023-01-29T10:05:34.301Z,0
2023-01-29T10:10:35.892Z,0
2023-01-29T10:15:37.504Z,0
2023-01-29T10:20:39.091Z,0
2023-01-29T10:25:40.828Z,0
2023-01-29T10:30:42.582Z,0
2023-01-29T10:35:44.394Z,0
2023-01-29T10:40:46.037Z,0
2023-01-29T10:45:47.707Z,0
2023-01-29T10:50:49.377Z,0
2023-01-29T10:55:51.025Z,0
2023-01-29T11:00:52.652Z,0
2023-01-29T11:05:54.432Z,0
2023-01-29T11:10:56.067Z,0
2023-01-29T11:15:57.681Z,0
2023-01-29T11:20:59.304Z,0
2023-01-29T11:26:00.926Z,0
2023-01-29T11:31:02.710Z,0
2023-01-29T11:36:04.516Z,0
2023-01-29T11:41:06.137Z,0
2023-01-29T11:46:07.996Z,0
2023-01-29T11:51:09.568Z,0
2023-01-29T11:56:11.320Z,0
2023-01-29T12:01:12.938Z,0
2023-01-29T12:06:14.830Z,0
2023-01-29T12:11:17.113Z,0
2023-01-29T12:16:19.122Z,0
2023-01-29T12:21:20.769Z,0
2023-01-29T12:26:22.439Z,0
2023-01-29T12:31:24.312Z,0
2023-01-29T12:36:25.938Z,0
2023-01-29T12:41:27.707Z,0
2023-01-29T12:46:29.456Z,0
2023-01-29T12:51:31.107Z,0
2023-01-29T12:56:32.737Z,0
2023-01-29T13:01:34.492Z,0
2023-01-29T13:06:36.098Z,0
2023-01-29T13:11:37.688Z,0
2023-01-29T13:16:39.511Z,0
2023-01-29T13:21:41.179Z,0
2023-01-29T13:26:42.924Z,0
2023-01-29T13:31:44.785Z,0
2023-01-29T13:36:46.515Z,0
2023-01-29T13:41:48.166Z,0
2023-01-29T13:46:49.850Z,0
2023-01-29T13:51:51.486Z,0
2023-01-29T13:56:53.138Z,0
2023-01-29T14:01:54.797Z,0
2023-01-29T14:06:56.472Z,0
2023-01-29T14:11:58.141Z,0
2023-01-29T14:16:59.839Z,0
2023-01-29T14:22:01.514Z,0
2023-01-29T14:27:03.220Z,0
2023-01-29T14:32:04.936Z,0
2023-01-29T14:37:06.622Z,0
2023-01-29T14:42:08.325Z,0
2023-01-29T14:47:10.031Z,0
2023-01-29T14:52:11.652Z,0
2023-01-29T14:57:13.398Z,0
2023-01-29T15:02:15.390Z,0.8296
2023-01-29T15:07:17.113Z,2.87705
2023-01-29T15:12:18.849Z,4.59225
2023-01-29T15:17:20.638Z,11.7478
2023-01-29T15:22:22.395Z,16.1556
2023-01-29T15:27:24.064Z,35.3537
2023-01-29T15:32:25.784Z,48.8167
2023-01-29T15:37:27.428Z,70.28335
2023-01-29T15:42:29.125Z,91.32595
2023-01-29T15:47:30.892Z,111.8152
2023-01-29T15:52:32.569Z,130.95815
2023-01-29T15:57:34.413Z,152.49895
2023-01-29T16:02:36.366Z,185.953
2023-01-29T16:07:37.958Z,209.4296
2023-01-29T16:12:39.797Z,244.10065
2023-01-29T16:17:41.488Z,274.45705
2023-01-29T16:22:43.106Z,317.9627
2023-01-29T16:27:44.815Z,1006.2482
2023-01-29T16:32:46.512Z,329.13395
2023-01-29T16:37:48.132Z,1266.9322
2023-01-29T16:42:49.771Z,1966.871
2023-01-29T16:47:51.457Z,1342.79865
2023-01-29T16:52:53.131Z,1367.85745
2023-01-29T16:57:54.762Z,1465.8046
2023-01-29T17:02:56.540Z,1331.2965
2023-01-29T17:07:58.182Z,1315.00975
2023-01-29T17:12:59.785Z,1004.26935
2023-01-29T17:18:01.569Z,1022.8381
2023-01-29T17:23:03.196Z,986.54315
2023-01-29T17:28:04.849Z,1024.23955
2023-01-29T17:33:06.785Z,1457.47425
2023-01-29T17:38:14.307Z,1512.7277
2023-01-29T17:43:22.336Z,1256.5581
2023-01-29T17:48:24.138Z,1704.8607
2023-01-29T17:53:30.478Z,1772.69105
2023-01-29T17:58:38.059Z,1499.93995
2023-01-29T18:03:39.830Z,1139.25345
2023-01-29T18:08:41.556Z,1062.73495
2023-01-29T18:13:43.553Z,1166.28975
2023-01-29T18:18:45.240Z,1143.51295
2023-01-29T18:23:46.919Z,1051.7611
2023-01-29T18:28:48.575Z,995.4561
2023-01-29T18:33:50.304Z,1447.33555
2023-01-29T18:38:51.937Z,1544.4763
2023-01-29T18:43:53.527Z,1579.92315
2023-01-29T18:48:55.264Z,1430.9079
2023-01-29T18:53:56.946Z,1371.4654
2023-01-29T18:58:58.566Z,1379.5052
2023-01-29T19:04:00.920Z,1310.53015
2023-01-29T19:09:02.608Z,1276.15385
2023-01-29T19:14:04.240Z,1230.39865
2023-01-29T19:19:05.927Z,1179.90475
2023-01-29T19:24:07.527Z,1263.6131
2023-01-29T19:29:09.668Z,1364.69405
2023-01-29T19:34:11.471Z,1389.4618
2023-01-29T19:39:13.052Z,1338.28525
2023-01-29T19:44:14.686Z,1261.34455
2023-01-29T19:49:16.379Z,1258.02815
2023-01-29T19:54:17.993Z,1272.15665
2023-01-29T19:59:19.638Z,1213.8417
2023-01-29T20:04:21.379Z,1255.72345
2023-01-29T20:09:23.078Z,1299.02565
2023-01-29T20:14:24.713Z,1376.65085
2023-01-29T20:19:26.531Z,1424.01095
2023-01-29T20:24:28.197Z,1439.134
2023-01-29T20:29:29.941Z,1420.24965
2023-01-29T20:34:31.676Z,1454.9397
2023-01-29T20:39:33.361Z,1453.5934
2023-01-29T20:44:34.968Z,1466.74265
2023-01-29T20:49:36.743Z,1426.59325
2023-01-29T20:54:38.401Z,1454.5328
2023-01-29T20:59:40.107Z,1483.2653
2023-01-29T21:04:44.145Z,1216.54775
2023-01-29T21:09:46.123Z,1462.49845
2023-01-29T21:14:48.819Z,1518.52585
2023-01-29T21:19:50.538Z,1434.0037
2023-01-29T21:24:52.170Z,1354.9219
2023-01-29T21:29:53.838Z,1187.59095
2023-01-29T21:34:55.730Z,1322.0022
2023-01-29T21:39:57.405Z,1291.1856
2023-01-29T21:44:59.071Z,1288.2534
2023-01-29T21:50:00.759Z,1240.22965
2023-01-29T21:55:02.367Z,1223.9086
2023-01-29T22:00:04.017Z,1171.2926
2023-01-29T22:05:18.218Z,1139.55375
2023-01-29T22:10:21.180Z,1103.83115
2023-01-29T22:15:24.128Z,1063.5163
2023-01-29T22:20:25.936Z,1011.34335
2023-01-29T22:25:27.632Z,953.96965
2023-01-29T22:30:29.380Z,883.74145
2023-01-29T22:35:31.204Z,811.68775
2023-01-29T22:40:32.881Z,749.29775
2023-01-29T22:45:34.616Z,635.89295
2023-01-29T22:50:36.390Z,603.363
2023-01-29T22:55:38.031Z,526.66005
2023-01-29T23:00:39.635Z,397.9459
2023-01-29T23:05:41.616Z,399.25235
2023-01-29T23:10:43.282Z,403.1791
2023-01-29T23:15:44.951Z,388.68355
2023-01-29T23:20:46.948Z,372.41765
2023-01-29T23:25:48.579Z,354.9899
2023-01-29T23:30:50.685Z,337.1381
2023-01-29T23:35:53.000Z,324.11815
2023-01-29T23:40:54.716Z,293.1171
2023-01-29T23:45:56.363Z,277.589
2023-01-29T23:50:58.066Z,253.135
2023-01-29T23:55:59.689Z,228.49655
